createdAt,value
2022-09-22T04:33:52.508Z,2.87
2022-09-22T04:48:54.785Z,2.52
2022-09-22T05:03:49.454Z,2.87
2022-09-22T05:33:50.355Z,1.85
2022-09-22T05:48:50.031Z,2.23
2022-09-22T06:18:49.317Z,7.05
2022-09-22T06:33:49.766Z,6.86
2022-09-22T06:48:48.930Z,6.96
2022-09-22T07:03:53.838Z,14.26
2022-09-22T09:03:49.372Z,1.4
2022-09-22T09:18:49.673Z,0.99
2022-09-22T09:33:49.027Z,0.96
2022-09-22T09:48:49.518Z,2.32
2022-09-22T10:03:49.264Z,1.13
2022-09-22T10:18:51.481Z,1.06
2022-09-22T10:33:50.880Z,1.69
2022-09-22T10:48:49.964Z,1.26
2022-09-22T11:33:49.788Z,1.24
2022-09-22T11:48:49.645Z,1.64
2022-09-22T12:03:49.033Z,2.14
2022-09-22T12:18:49.024Z,2.1
2022-09-22T12:33:49.896Z,1.78
2022-09-22T12:48:49.315Z,1.52
2022-09-22T13:03:48.767Z,1.46
2022-09-22T13:18:48.908Z,1.23
2022-09-22T13:33:50.934Z,1.25
2022-09-22T13:48:49.465Z,1.6
2022-09-22T14:03:49.260Z,2.99
2022-09-22T14:18:48.840Z,2.56
2022-09-22T14:33:49.093Z,2.71
2022-09-22T14:48:49.274Z,2.54
2022-09-22T15:03:49.066Z,6.19
2022-09-22T15:18:48.379Z,2.49
2022-09-22T15:33:49.129Z,3.11
2022-09-22T15:48:49.001Z,2.03
2022-09-22T16:03:48.904Z,1.8
2022-09-22T16:18:49.231Z,2.6
2022-09-22T16:33:48.953Z,3.45
2022-09-22T16:48:49.105Z,1.56
2022-09-22T17:03:48.522Z,2.94
2022-09-22T17:18:48.546Z,3.79
2022-09-22T17:48:49.186Z,5.33
2022-09-22T18:03:48.783Z,9.18
2022-09-22T18:18:48.922Z,9.22
2022-09-22T18:33:48.573Z,17.51
2022-09-22T18:48:49.215Z,8.76
2022-09-22T19:03:48.486Z,15.53
2022-09-22T19:18:58.641Z,14.54
2022-09-22T19:33:48.923Z,12.17
2022-09-22T19:48:49.203Z,13.01
2022-09-22T20:03:48.560Z,11.97
2022-09-22T20:18:49.237Z,10.67
2022-09-22T20:33:48.602Z,6.74
2022-09-22T20:48:48.811Z,5.35
2022-09-22T21:03:48.939Z,12.61
2022-09-22T21:18:48.515Z,11.11
2022-09-22T21:33:48.801Z,7.56
2022-09-22T21:48:48.452Z,10.46
2022-09-22T22:03:49.242Z,4.96
2022-09-22T22:18:49.601Z,4.57
2022-09-22T22:33:48.986Z,3.97
2022-09-22T22:48:49.156Z,3.53
2022-09-22T23:03:53.937Z,3.09
2022-09-22T23:18:48.843Z,3.29
2022-09-22T23:33:48.769Z,3.22
2022-09-22T23:48:48.711Z,3.31
